Time;durP1;ratioP1;P1;durP2;ratioP2;P2;SDS_P1;SDS_P2;PMS_P1;PMS_P2;Temp;Humidity;BMP_temperature;BMP_pressure;BME280_temperature;BME280_humidity;BME280_pressure;Samples;Min_cycle;Max_cycle;Signal;HPM_P1;HPM_P2
2023/03/15 00:00:27;;;;;;;2.22;0.95;;;;;;;;;;5091164;28;20039;-81
2023/03/15 00:02:52;;;;;;;1.17;1.08;;;;;;;;;;5084119;28;20063;-81
2023/03/15 00:05:18;;;;;;;1.20;0.80;;;;;;;;;;5089867;28;20683;-80
2023/03/15 00:07:43;;;;;;;1.63;1.25;;;;;;;;;;5091321;28;20024;-80
2023/03/15 00:10:09;;;;;;;0.95;0.88;;;;;;;;;;5094192;28;20020;-80
2023/03/15 00:12:35;;;;;;;0.47;0.47;;;;;;;;;;5091196;28;20036;-80
2023/03/15 00:15:00;;;;;;;2.78;1.48;;;;;;;;;;5091259;28;20080;-81
2023/03/15 00:17:26;;;;;;;1.02;0.93;;;;;;;;;;5086302;28;20024;-80
2023/03/15 00:19:51;;;;;;;0.95;0.93;;;;;;;;;;5087993;28;20019;-79
2023/03/15 00:22:16;;;;;;;1.95;0.65;;;;;;;;;;5082463;28;20155;-80
2023/03/15 00:24:42;;;;;;;1.85;1.38;;;;;;;;;;5091753;28;20051;-80
2023/03/15 00:27:08;;;;;;;0.77;0.77;;;;;;;;;;5085435;28;20476;-81
2023/03/15 00:29:33;;;;;;;0.60;0.60;;;;;;;;;;5107748;27;20044;-81
2023/03/15 00:31:59;;;;;;;1.67;1.02;;;;;;;;;;5090145;28;20024;-80
2023/03/15 00:34:24;;;;;;;1.17;0.95;;;;;;;;;;5092221;28;20056;-81
2023/03/15 00:36:52;;;;;;;2.38;1.42;;;;;;;;;;5089637;28;20019;-81
2023/03/15 00:39:19;;;;;;;1.38;0.85;;;;;;;;;;5090173;28;20054;-80
2023/03/15 00:41:44;;;;;;;2.25;1.30;;;;;;;;;;5083918;28;20074;-81
2023/03/15 00:44:10;;;;;;;2.65;1.38;;;;;;;;;;5090340;28;20422;-81
2023/03/15 00:46:36;;;;;;;3.10;1.55;;;;;;;;;;5092429;28;20024;-81
2023/03/15 00:49:01;;;;;;;1.85;1.35;;;;;;;;;;5084733;28;20081;-80
2023/03/15 00:51:26;;;;;;;1.55;1.10;;;;;;;;;;5085236;28;20077;-80
2023/03/15 00:53:52;;;;;;;1.67;1.10;;;;;;;;;;5086976;28;20039;-81
2023/03/15 00:56:21;;;;;;;1.13;0.73;;;;;;;;;;5085132;28;20028;-80
2023/03/15 00:58:47;;;;;;;0.90;0.80;;;;;;;;;;5085894;28;20031;-80
2023/03/15 01:01:16;;;;;;;2.67;1.40;;;;;;;;;;5090613;28;20032;-80
2023/03/15 01:03:42;;;;;;;3.37;1.63;;;;;;;;;;5089593;28;20027;-80
2023/03/15 01:06:11;;;;;;;1.30;1.13;;;;;;;;;;5085641;28;20155;-80
2023/03/15 01:08:37;;;;;;;0.82;0.82;;;;;;;;;;5085604;28;20475;-80
2023/03/15 01:11:05;;;;;;;1.50;1.23;;;;;;;;;;5087608;28;20039;-80
2023/03/15 01:13:31;;;;;;;1.67;1.38;;;;;;;;;;5079195;28;20467;-80
2023/03/15 01:15:56;;;;;;;2.83;1.70;;;;;;;;;;5094129;28;20024;-80
2023/03/15 01:18:22;;;;;;;2.45;1.10;;;;;;;;;;5090773;28;20023;-80
2023/03/15 01:20:47;;;;;;;1.13;1.02;;;;;;;;;;5090388;28;20028;-81
2023/03/15 01:23:13;;;;;;;7.93;1.77;;;;;;;;;;5085770;28;20153;-80
2023/03/15 01:25:38;;;;;;;1.42;1.20;;;;;;;;;;5085617;28;20070;-80
2023/03/15 01:28:04;;;;;;;2.40;1.48;;;;;;;;;;5078218;28;20028;-81
2023/03/15 01:30:29;;;;;;;1.92;1.48;;;;;;;;;;5091719;28;20027;-80
2023/03/15 01:32:54;;;;;;;1.27;1.10;;;;;;;;;;5082923;28;20040;-81
2023/03/15 01:35:20;;;;;;;2.58;2.30;;;;;;;;;;5079358;28;20027;-80
2023/03/15 01:37:48;;;;;;;1.42;1.00;;;;;;;;;;5080925;28;20035;-81
2023/03/15 01:40:14;;;;;;;2.20;1.50;;;;;;;;;;5084718;28;20032;-81
2023/03/15 01:43:12;;;;;;;3.42;1.95;;;;;;;;;;5087831;28;20392;-80
2023/03/15 01:46:01;;;;;;;2.33;1.23;;;;;;;;;;5089251;28;20026;-80
2023/03/15 01:48:55;;;;;;;2.03;1.10;;;;;;;;;;5085788;28;20031;-81
2023/03/15 01:51:38;;;;;;;1.80;1.40;;;;;;;;;;5063944;28;20037;-80
2023/03/15 01:54:09;;;;;;;0.80;0.80;;;;;;;;;;5083190;28;20104;-81
2023/03/15 01:56:37;;;;;;;3.42;2.08;;;;;;;;;;5081476;28;20028;-81
2023/03/15 01:59:06;;;;;;;2.03;0.93;;;;;;;;;;5086984;28;20455;-81
2023/03/15 02:01:34;;;;;;;1.75;1.25;;;;;;;;;;5089076;28;20478;-80
2023/03/15 02:04:08;;;;;;;2.03;1.65;;;;;;;;;;5082811;28;20036;-80
2023/03/15 02:06:34;;;;;;;1.58;1.08;;;;;;;;;;5086145;28;20525;-81
2023/03/15 02:09:05;;;;;;;2.88;1.63;;;;;;;;;;5088636;28;20024;-80
2023/03/15 02:11:32;;;;;;;1.75;0.93;;;;;;;;;;5086590;28;20031;-80
2023/03/15 02:13:59;;;;;;;1.40;1.27;;;;;;;;;;5087085;28;20027;-81
2023/03/15 02:16:24;;;;;;;2.30;0.90;;;;;;;;;;5082098;28;20028;-80
2023/03/15 02:18:50;;;;;;;1.42;1.25;;;;;;;;;;5090762;28;20038;-81
2023/03/15 02:21:18;;;;;;;1.15;1.05;;;;;;;;;;5090918;28;20035;-80
2023/03/15 02:23:50;;;;;;;9.95;1.35;;;;;;;;;;5089054;28;20565;-80
2023/03/15 02:26:27;;;;;;;0.90;0.90;;;;;;;;;;5083917;28;20118;-80
2023/03/15 02:28:53;;;;;;;1.98;1.58;;;;;;;;;;5091063;28;20032;-80
2023/03/15 02:31:20;;;;;;;1.33;1.23;;;;;;;;;;5086562;28;20039;-80
2023/03/15 02:33:49;;;;;;;4.07;1.92;;;;;;;;;;5085019;28;20048;-80
2023/03/15 02:36:19;;;;;;;1.95;1.13;;;;;;;;;;5084655;28;20105;-80
2023/03/15 02:38:45;;;;;;;3.10;1.40;;;;;;;;;;5081480;28;20019;-81
2023/03/15 02:41:12;;;;;;;0.98;0.95;;;;;;;;;;5092314;28;20065;-80
2023/03/15 02:43:38;;;;;;;1.63;0.70;;;;;;;;;;5088665;28;20024;-80
2023/03/15 02:46:04;;;;;;;1.17;0.80;;;;;;;;;;5086481;28;20024;-81
2023/03/15 02:48:34;;;;;;;1.23;0.98;;;;;;;;;;5084633;28;20027;-81
2023/03/15 02:51:00;;;;;;;1.75;1.48;;;;;;;;;;5083197;28;20028;-81
2023/03/15 02:53:28;;;;;;;9.15;1.55;;;;;;;;;;5091131;28;20077;-80
2023/03/15 02:55:54;;;;;;;0.68;0.68;;;;;;;;;;5085560;28;20015;-80
2023/03/15 02:58:19;;;;;;;1.75;1.40;;;;;;;;;;5104338;28;20031;-80
2023/03/15 03:00:45;;;;;;;1.73;0.70;;;;;;;;;;5088378;28;20369;-80
2023/03/15 03:03:10;;;;;;;2.13;1.23;;;;;;;;;;5087295;28;20063;-81
2023/03/15 03:05:36;;;;;;;3.35;1.58;;;;;;;;;;5079937;28;20028;-81
2023/03/15 03:08:01;;;;;;;4.63;1.88;;;;;;;;;;5086799;28;20036;-80
2023/03/15 03:10:27;;;;;;;1.90;1.75;;;;;;;;;;5089711;28;20020;-81
2023/03/15 03:12:53;;;;;;;3.70;1.90;;;;;;;;;;5081287;28;21121;-81
2023/03/15 03:15:19;;;;;;;3.83;2.15;;;;;;;;;;5087832;28;20024;-81
2023/03/15 03:17:45;;;;;;;5.07;2.05;;;;;;;;;;5084627;28;20491;-81
2023/03/15 03:20:12;;;;;;;2.92;1.60;;;;;;;;;;5086812;28;20024;-81
2023/03/15 03:22:39;;;;;;;3.22;2.47;;;;;;;;;;5086196;28;20028;-80
2023/03/15 03:25:06;;;;;;;1.90;1.52;;;;;;;;;;5091590;28;20123;-80
2023/03/15 03:27:35;;;;;;;1.95;1.10;;;;;;;;;;5084099;28;20035;-81
2023/03/15 03:30:02;;;;;;;5.70;2.07;;;;;;;;;;5089521;28;20035;-80
2023/03/15 03:32:28;;;;;;;3.10;1.55;;;;;;;;;;5089373;28;20040;-80
2023/03/15 03:34:54;;;;;;;1.88;1.58;;;;;;;;;;5089536;28;20884;-80
2023/03/15 03:37:22;;;;;;;3.50;1.88;;;;;;;;;;5079119;28;20028;-81
2023/03/15 03:39:48;;;;;;;2.65;1.65;;;;;;;;;;5087831;28;20019;-81
2023/03/15 03:42:16;;;;;;;1.10;1.02;;;;;;;;;;5085990;28;20498;-81
2023/03/15 03:44:41;;;;;;;1.10;1.00;;;;;;;;;;5089276;28;20145;-81
2023/03/15 03:47:07;;;;;;;3.33;2.08;;;;;;;;;;5085891;28;20035;-81
2023/03/15 03:49:32;;;;;;;1.10;0.90;;;;;;;;;;5089446;28;20027;-81
2023/03/15 03:52:00;;;;;;;1.55;1.20;;;;;;;;;;5088741;28;20181;-81
2023/03/15 03:54:26;;;;;;;1.83;1.30;;;;;;;;;;5090107;28;20050;-80
2023/03/15 03:56:51;;;;;;;2.20;1.35;;;;;;;;;;5085741;28;20024;-81
2023/03/15 03:59:17;;;;;;;2.58;1.63;;;;;;;;;;5082351;28;20534;-81
2023/03/15 04:01:42;;;;;;;1.27;0.90;;;;;;;;;;5076629;28;20107;-81
2023/03/15 04:04:08;;;;;;;2.33;1.88;;;;;;;;;;5080854;28;20020;-82
2023/03/15 04:06:34;;;;;;;2.03;1.42;;;;;;;;;;5085025;28;20049;-81
2023/03/15 04:09:01;;;;;;;3.25;1.67;;;;;;;;;;5078650;28;20043;-81
2023/03/15 04:11:27;;;;;;;1.85;1.17;;;;;;;;;;5083285;28;20028;-81
2023/03/15 04:13:53;;;;;;;1.77;1.25;;;;;;;;;;5083881;28;20036;-81
2023/03/15 04:16:19;;;;;;;3.72;1.98;;;;;;;;;;5086444;28;20029;-80
2023/03/15 04:18:44;;;;;;;0.73;0.73;;;;;;;;;;5076416;28;20036;-81
2023/03/15 04:21:09;;;;;;;2.30;1.27;;;;;;;;;;5082030;28;20047;-81
2023/03/15 04:23:36;;;;;;;2.78;1.13;;;;;;;;;;5091841;28;20431;-81
2023/03/15 04:26:04;;;;;;;2.08;1.60;;;;;;;;;;5080353;28;20025;-81
2023/03/15 04:28:30;;;;;;;1.35;0.65;;;;;;;;;;5083701;28;20020;-81
2023/03/15 04:30:57;;;;;;;0.70;0.70;;;;;;;;;;5086480;28;20128;-81
2023/03/15 04:33:30;;;;;;;3.20;2.00;;;;;;;;;;5090016;28;20048;-81
2023/03/15 04:35:56;;;;;;;1.58;1.48;;;;;;;;;;5084988;28;20085;-81
2023/03/15 04:38:25;;;;;;;2.10;1.33;;;;;;;;;;5088060;28;20052;-81
2023/03/15 04:40:52;;;;;;;3.85;1.02;;;;;;;;;;5092143;28;20028;-81
2023/03/15 04:43:17;;;;;;;4.78;2.45;;;;;;;;;;5086928;28;20043;-81
2023/03/15 04:45:43;;;;;;;2.13;1.45;;;;;;;;;;5088169;28;20027;-81
2023/03/15 04:48:09;;;;;;;5.70;2.33;;;;;;;;;;5087647;28;20070;-81
2023/03/15 04:50:35;;;;;;;1.40;1.30;;;;;;;;;;5081581;28;20036;-80
2023/03/15 04:53:00;;;;;;;0.98;0.70;;;;;;;;;;5089996;28;20028;-81
2023/03/15 04:55:26;;;;;;;0.90;0.90;;;;;;;;;;5092081;28;20035;-81
2023/03/15 04:57:51;;;;;;;3.72;2.30;;;;;;;;;;5108188;28;20070;-80
2023/03/15 05:00:17;;;;;;;2.00;1.13;;;;;;;;;;5088332;28;20065;-80
2023/03/15 05:02:43;;;;;;;3.17;2.05;;;;;;;;;;5092316;28;20032;-81
2023/03/15 05:05:10;;;;;;;1.48;1.17;;;;;;;;;;5083860;28;20154;-81
2023/03/15 05:07:36;;;;;;;1.40;0.88;;;;;;;;;;5089739;28;20071;-79
2023/03/15 05:10:02;;;;;;;2.33;2.13;;;;;;;;;;5086020;28;20073;-82
2023/03/15 05:12:29;;;;;;;1.25;1.08;;;;;;;;;;5087600;28;20032;-81
2023/03/15 05:14:55;;;;;;;2.58;0.85;;;;;;;;;;5084931;28;20115;-81
2023/03/15 05:17:21;;;;;;;8.25;5.85;;;;;;;;;;5081960;28;20150;-81
2023/03/15 05:19:50;;;;;;;10.82;4.32;;;;;;;;;;5083574;28;20024;-80
2023/03/15 05:22:16;;;;;;;3.83;2.50;;;;;;;;;;5086015;28;20024;-79
2023/03/15 05:24:42;;;;;;;3.22;1.90;;;;;;;;;;5086161;28;20043;-79
2023/03/15 05:27:08;;;;;;;7.78;2.28;;;;;;;;;;5090468;28;20039;-79
2023/03/15 05:29:33;;;;;;;5.40;3.17;;;;;;;;;;5091175;28;20353;-79
2023/03/15 05:31:59;;;;;;;4.35;2.15;;;;;;;;;;5105239;28;20027;-79
2023/03/15 05:34:24;;;;;;;13.98;4.50;;;;;;;;;;5076918;28;20040;-79
2023/03/15 05:36:50;;;;;;;7.47;3.13;;;;;;;;;;5088131;28;20021;-80
2023/03/15 05:39:17;;;;;;;5.93;3.03;;;;;;;;;;5084835;28;20086;-79
2023/03/15 05:41:42;;;;;;;20.95;3.95;;;;;;;;;;5083121;28;20016;-80
2023/03/15 05:44:08;;;;;;;8.63;4.22;;;;;;;;;;5087224;28;20047;-80
2023/03/15 05:46:33;;;;;;;12.70;5.57;;;;;;;;;;5104549;28;20024;-80
2023/03/15 05:48:59;;;;;;;6.60;4.97;;;;;;;;;;5086427;28;20104;-81
2023/03/15 05:51:24;;;;;;;5.55;3.55;;;;;;;;;;5107841;28;20024;-81
2023/03/15 05:53:50;;;;;;;4.38;3.15;;;;;;;;;;5085268;28;20015;-78
2023/03/15 05:56:15;;;;;;;6.32;4.00;;;;;;;;;;5078471;28;20534;-78
2023/03/15 05:58:41;;;;;;;3.75;2.78;;;;;;;;;;5088611;28;20031;-79
2023/03/15 06:01:06;;;;;;;6.43;3.97;;;;;;;;;;5089328;28;20032;-78
2023/03/15 06:03:31;;;;;;;5.60;3.42;;;;;;;;;;5086572;28;20391;-79
2023/03/15 06:05:58;;;;;;;8.88;4.65;;;;;;;;;;5090204;28;20039;-79
2023/03/15 06:08:24;;;;;;;6.50;3.90;;;;;;;;;;5086330;28;20028;-79
2023/03/15 06:10:49;;;;;;;8.88;4.07;;;;;;;;;;5078860;28;20063;-79
2023/03/15 06:13:15;;;;;;;4.45;3.53;;;;;;;;;;5087713;28;20047;-79
2023/03/15 06:15:41;;;;;;;5.25;3.88;;;;;;;;;;5082068;28;20485;-79
2023/03/15 06:18:07;;;;;;;3.63;3.20;;;;;;;;;;5084474;28;20061;-79
2023/03/15 06:20:32;;;;;;;8.02;3.60;;;;;;;;;;5090830;28;20030;-79
2023/03/15 06:22:58;;;;;;;5.47;2.97;;;;;;;;;;5090437;28;20023;-79
2023/03/15 06:25:23;;;;;;;6.43;2.72;;;;;;;;;;5103387;28;20494;-79
2023/03/15 06:27:49;;;;;;;3.10;2.63;;;;;;;;;;5089830;28;20016;-79
2023/03/15 06:30:14;;;;;;;4.55;2.97;;;;;;;;;;5091247;28;20488;-79
2023/03/15 06:32:40;;;;;;;3.38;2.47;;;;;;;;;;5088113;28;20052;-78
2023/03/15 06:35:06;;;;;;;5.32;2.92;;;;;;;;;;5091201;28;20098;-79
2023/03/15 06:37:31;;;;;;;3.33;2.50;;;;;;;;;;5090201;28;20024;-78
2023/03/15 06:39:57;;;;;;;10.05;2.80;;;;;;;;;;5085961;28;20024;-79
2023/03/15 06:42:22;;;;;;;3.55;2.53;;;;;;;;;;5090051;28;20034;-79
2023/03/15 06:44:48;;;;;;;8.68;3.72;;;;;;;;;;5088439;28;20392;-79
2023/03/15 06:47:13;;;;;;;5.40;3.10;;;;;;;;;;5078440;28;20032;-78
2023/03/15 06:49:39;;;;;;;3.55;2.63;;;;;;;;;;5087172;28;20036;-78
2023/03/15 06:52:06;;;;;;;7.45;3.03;;;;;;;;;;5088972;28;20062;-79
2023/03/15 06:54:31;;;;;;;3.20;2.08;;;;;;;;;;5090646;28;20032;-78
2023/03/15 06:56:57;;;;;;;4.28;2.42;;;;;;;;;;5086772;28;20153;-78
2023/03/15 06:59:23;;;;;;;4.22;2.60;;;;;;;;;;5086812;28;20388;-80
2023/03/15 07:01:49;;;;;;;6.55;3.78;;;;;;;;;;5073857;28;20392;-80
2023/03/15 07:04:14;;;;;;;5.22;3.30;;;;;;;;;;5082175;28;20115;-81
2023/03/15 07:06:39;;;;;;;11.68;3.42;;;;;;;;;;5083465;28;20032;-78
2023/03/15 07:09:05;;;;;;;5.70;2.92;;;;;;;;;;5083037;28;20149;-78
2023/03/15 07:11:31;;;;;;;5.72;2.33;;;;;;;;;;5086407;28;20028;-78
2023/03/15 07:13:57;;;;;;;6.53;2.88;;;;;;;;;;5082097;28;20124;-79
2023/03/15 07:16:23;;;;;;;2.60;1.92;;;;;;;;;;5089035;28;20123;-78
2023/03/15 07:18:49;;;;;;;3.55;2.42;;;;;;;;;;5089017;28;20138;-79
2023/03/15 07:21:14;;;;;;;4.43;2.55;;;;;;;;;;5075010;28;20477;-78
2023/03/15 07:23:40;;;;;;;3.22;2.08;;;;;;;;;;5081988;28;20032;-79
2023/03/15 07:26:06;;;;;;;5.57;3.00;;;;;;;;;;5077753;28;20480;-78
2023/03/15 07:28:31;;;;;;;3.80;2.30;;;;;;;;;;5088082;28;20032;-79
2023/03/15 07:31:01;;;;;;;3.22;2.08;;;;;;;;;;5080206;28;20037;-78
2023/03/15 07:33:29;;;;;;;2.58;2.10;;;;;;;;;;5089362;28;20047;-79
2023/03/15 07:35:54;;;;;;;6.20;2.15;;;;;;;;;;5085585;28;20385;-79
2023/03/15 07:38:24;;;;;;;16.23;2.22;;;;;;;;;;5088976;28;20046;-79
2023/03/15 07:40:50;;;;;;;3.90;2.33;;;;;;;;;;5085676;28;20024;-79
2023/03/15 07:43:16;;;;;;;3.90;2.35;;;;;;;;;;5082677;28;20028;-79
2023/03/15 07:45:41;;;;;;;3.33;2.30;;;;;;;;;;5086746;28;20514;-79
2023/03/15 07:48:07;;;;;;;5.00;2.28;;;;;;;;;;5082264;28;20048;-80
2023/03/15 07:50:32;;;;;;;2.47;1.88;;;;;;;;;;5081995;28;20035;-79
2023/03/15 07:52:58;;;;;;;3.88;1.80;;;;;;;;;;5087783;28;20035;-79
2023/03/15 07:55:24;;;;;;;5.40;2.88;;;;;;;;;;5085335;28;20036;-78
2023/03/15 07:57:50;;;;;;;4.90;2.17;;;;;;;;;;5089648;28;20020;-79
2023/03/15 08:00:16;;;;;;;3.58;2.25;;;;;;;;;;5092691;28;20369;-78
2023/03/15 08:02:42;;;;;;;3.65;1.88;;;;;;;;;;5077108;28;20032;-79
2023/03/15 08:05:08;;;;;;;5.22;3.20;;;;;;;;;;5088647;28;20043;-79
2023/03/15 08:07:35;;;;;;;3.35;1.63;;;;;;;;;;5090491;28;20052;-79
2023/03/15 08:10:01;;;;;;;7.10;3.38;;;;;;;;;;5081292;28;20024;-81
2023/03/15 08:12:27;;;;;;;6.90;3.42;;;;;;;;;;5089573;28;20531;-79
2023/03/15 08:14:52;;;;;;;5.80;2.63;;;;;;;;;;5085194;28;20123;-78
2023/03/15 08:17:18;;;;;;;21.50;2.97;;;;;;;;;;5090001;28;20494;-79
2023/03/15 08:19:43;;;;;;;3.42;1.58;;;;;;;;;;5087310;28;20028;-79
2023/03/15 08:22:09;;;;;;;6.57;3.17;;;;;;;;;;5087384;28;20024;-79
2023/03/15 08:24:35;;;;;;;2.47;1.90;;;;;;;;;;5101351;28;20081;-79
2023/03/15 08:27:01;;;;;;;5.75;2.25;;;;;;;;;;5091703;28;20107;-80
2023/03/15 08:29:27;;;;;;;4.55;2.92;;;;;;;;;;5087184;28;20047;-79
2023/03/15 08:31:52;;;;;;;2.92;1.45;;;;;;;;;;5089951;28;20067;-79
2023/03/15 08:34:18;;;;;;;5.07;2.80;;;;;;;;;;5080870;28;20079;-79
2023/03/15 08:36:46;;;;;;;6.70;1.98;;;;;;;;;;5087913;28;20429;-79
2023/03/15 08:39:11;;;;;;;6.50;3.03;;;;;;;;;;5092569;28;20027;-80
2023/03/15 08:41:37;;;;;;;3.25;2.35;;;;;;;;;;5101779;28;20122;-79
2023/03/15 08:44:02;;;;;;;2.88;2.08;;;;;;;;;;5081883;28;20024;-79
2023/03/15 08:46:27;;;;;;;4.05;2.47;;;;;;;;;;5092238;28;20024;-79
2023/03/15 08:48:53;;;;;;;3.03;1.85;;;;;;;;;;5091583;28;20043;-79
2023/03/15 08:51:20;;;;;;;4.47;2.38;;;;;;;;;;5091890;28;20032;-80
2023/03/15 08:53:46;;;;;;;5.57;3.00;;;;;;;;;;5083109;28;20032;-79
2023/03/15 08:56:11;;;;;;;3.22;1.95;;;;;;;;;;5091323;28;20399;-78
2023/03/15 08:58:37;;;;;;;2.35;1.52;;;;;;;;;;5080011;28;20052;-79
2023/03/15 09:01:03;;;;;;;2.78;1.75;;;;;;;;;;5080550;28;20452;-79
2023/03/15 09:03:31;;;;;;;3.83;2.13;;;;;;;;;;5079111;28;20046;-80
2023/03/15 09:05:57;;;;;;;4.38;1.85;;;;;;;;;;5088784;28;20102;-79
2023/03/15 09:08:24;;;;;;;3.25;1.98;;;;;;;;;;5085635;28;20043;-79
2023/03/15 09:10:55;;;;;;;4.50;2.10;;;;;;;;;;5086917;28;20039;-79
2023/03/15 09:13:20;;;;;;;;;;;;;;;;;;5091911;28;20031;-79
2023/03/15 09:15:48;;;;;;;3.40;1.98;;;;;;;;;;5086419;28;19982;-80
2023/03/15 09:18:14;;;;;;;5.60;2.72;;;;;;;;;;5089455;28;20031;-79
2023/03/15 09:20:40;;;;;;;4.03;2.53;;;;;;;;;;5091494;28;20097;-79
2023/03/15 09:23:05;;;;;;;4.20;2.47;;;;;;;;;;5092408;28;20028;-78
2023/03/15 09:25:30;;;;;;;5.22;2.03;;;;;;;;;;5084238;28;20452;-79
2023/03/15 09:27:56;;;;;;;6.88;3.05;;;;;;;;;;5089205;28;20108;-79
2023/03/15 09:30:22;;;;;;;2.67;2.22;;;;;;;;;;5086949;28;20118;-79
2023/03/15 09:32:48;;;;;;;4.05;2.33;;;;;;;;;;5088477;28;20044;-79
2023/03/15 09:35:15;;;;;;;3.58;2.30;;;;;;;;;;5087805;28;20514;-79
2023/03/15 09:37:41;;;;;;;3.13;1.55;;;;;;;;;;5087267;28;20479;-79
2023/03/15 09:40:14;;;;;;;3.60;2.00;;;;;;;;;;5088267;28;20028;-79
2023/03/15 09:42:55;;;;;;;5.80;1.88;;;;;;;;;;5087239;28;20039;-79
2023/03/15 09:45:39;;;;;;;2.83;1.92;;;;;;;;;;5084675;28;20726;-79
2023/03/15 09:48:08;;;;;;;4.30;2.10;;;;;;;;;;5087375;28;20028;-80
2023/03/15 09:50:47;;;;;;;3.17;2.70;;;;;;;;;;5089534;28;20024;-79
2023/03/15 09:53:23;;;;;;;7.47;2.67;;;;;;;;;;5084826;28;20475;-79
2023/03/15 09:55:50;;;;;;;10.95;2.97;;;;;;;;;;5079394;28;20036;-79
2023/03/15 09:58:25;;;;;;;1.95;1.65;;;;;;;;;;5086479;28;20027;-79
2023/03/15 10:00:57;;;;;;;2.47;1.80;;;;;;;;;;5083081;28;20043;-79
2023/03/15 10:03:33;;;;;;;4.43;3.22;;;;;;;;;;5090672;28;20028;-80
2023/03/15 10:06:04;;;;;;;2.33;1.80;;;;;;;;;;5089208;28;20027;-78
2023/03/15 10:08:30;;;;;;;8.02;2.42;;;;;;;;;;5074983;28;20024;-79
2023/03/15 10:11:16;;;;;;;2.65;1.75;;;;;;;;;;5085337;28;20076;-80
2023/03/15 10:14:03;;;;;;;3.25;2.10;;;;;;;;;;5089009;28;20024;-80
2023/03/15 10:16:46;;;;;;;2.10;1.75;;;;;;;;;;5089431;28;20024;-79
2023/03/15 10:19:24;;;;;;;3.65;1.98;;;;;;;;;;5087819;28;20034;-79
2023/03/15 10:22:11;;;;;;;6.53;2.10;;;;;;;;;;5091175;28;20060;-79
2023/03/15 10:24:51;;;;;;;5.13;2.60;;;;;;;;;;5082754;28;20380;-79
2023/03/15 10:27:36;;;;;;;2.72;2.13;;;;;;;;;;5106219;28;20032;-79
2023/03/15 10:30:14;;;;;;;4.40;1.95;;;;;;;;;;5085550;28;20407;-79
2023/03/15 10:32:42;;;;;;;4.07;2.33;;;;;;;;;;5079563;28;20066;-79
2023/03/15 10:35:17;;;;;;;4.70;1.88;;;;;;;;;;5086506;28;20028;-79
2023/03/15 10:37:44;;;;;;;3.17;2.05;;;;;;;;;;5090632;28;20158;-79
2023/03/15 10:40:17;;;;;;;2.95;1.58;;;;;;;;;;5077505;28;20024;-79
2023/03/15 10:42:47;;;;;;;3.92;1.95;;;;;;;;;;5089597;28;20028;-80
2023/03/15 10:45:22;;;;;;;3.67;2.30;;;;;;;;;;5076387;28;20107;-78
2023/03/15 10:47:49;;;;;;;5.30;2.13;;;;;;;;;;5080811;28;20476;-79
2023/03/15 10:50:33;;;;;;;5.60;1.75;;;;;;;;;;5089605;28;20099;-78
2023/03/15 10:53:01;;;;;;;2.50;1.90;;;;;;;;;;5085294;28;20039;-78
2023/03/15 10:55:32;;;;;;;3.90;1.45;;;;;;;;;;5090689;28;20031;-79
2023/03/15 10:58:11;;;;;;;2.78;1.50;;;;;;;;;;5087511;28;20028;-79
2023/03/15 11:00:36;;;;;;;1.95;1.58;;;;;;;;;;5088318;28;20020;-79
2023/03/15 11:03:18;;;;;;;2.17;1.52;;;;;;;;;;5089290;28;20336;-79
2023/03/15 11:05:46;;;;;;;2.80;1.65;;;;;;;;;;5082581;28;20068;-79
2023/03/15 11:08:14;;;;;;;4.07;1.63;;;;;;;;;;5085902;28;20028;-79
2023/03/15 11:10:40;;;;;;;3.83;2.20;;;;;;;;;;5080098;28;20024;-79
2023/03/15 11:13:10;;;;;;;2.15;1.40;;;;;;;;;;5082280;28;20375;-79
2023/03/15 11:15:36;;;;;;;4.28;2.10;;;;;;;;;;5086545;28;20073;-79
2023/03/15 11:18:02;;;;;;;4.65;1.65;;;;;;;;;;5081180;28;20479;-79
2023/03/15 11:20:31;;;;;;;7.53;2.10;;;;;;;;;;5083506;28;20032;-78
2023/03/15 11:22:58;;;;;;;8.52;2.72;;;;;;;;;;5079737;28;20124;-79
2023/03/15 11:25:30;;;;;;;3.85;2.03;;;;;;;;;;5079038;28;20052;-79
2023/03/15 11:27:56;;;;;;;1.92;1.35;;;;;;;;;;5079139;28;20029;-79
2023/03/15 11:30:27;;;;;;;2.67;1.63;;;;;;;;;;5082122;28;20020;-79
2023/03/15 11:32:54;;;;;;;3.92;2.00;;;;;;;;;;5084354;28;20121;-79
2023/03/15 11:35:31;;;;;;;1.98;1.50;;;;;;;;;;5088672;28;20032;-79
2023/03/15 11:38:02;;;;;;;6.35;2.15;;;;;;;;;;5083775;28;20028;-79
2023/03/15 11:40:40;;;;;;;8.98;1.88;;;;;;;;;;5093841;28;20028;-78
2023/03/15 11:43:14;;;;;;;4.82;2.63;;;;;;;;;;5087551;28;20407;-78
2023/03/15 11:45:58;;;;;;;3.40;2.50;;;;;;;;;;5093040;28;20031;-79
2023/03/15 11:48:58;;;;;;;4.00;1.75;;;;;;;;;;5088526;28;20032;-79
2023/03/15 11:51:24;;;;;;;3.85;1.65;;;;;;;;;;5107920;28;20028;-79
2023/03/15 11:54:04;;;;;;;2.67;1.30;;;;;;;;;;5091624;28;20107;-79
2023/03/15 11:56:50;;;;;;;2.78;1.70;;;;;;;;;;5093405;28;20024;-79
2023/03/15 11:59:18;;;;;;;2.47;1.35;;;;;;;;;;5082794;28;20361;-80
2023/03/15 12:02:08;;;;;;;1.65;1.30;;;;;;;;;;5089521;28;20023;-79
2023/03/15 12:04:33;;;;;;;3.85;1.77;;;;;;;;;;5107316;28;20035;-80
2023/03/15 12:07:05;;;;;;;2.30;1.50;;;;;;;;;;5082465;28;20032;-79
2023/03/15 12:09:36;;;;;;;2.33;1.85;;;;;;;;;;5083386;28;20020;-79
2023/03/15 12:12:25;;;;;;;5.05;2.50;;;;;;;;;;5093100;28;20037;-79
2023/03/15 12:15:08;;;;;;;4.22;1.25;;;;;;;;;;5079681;28;20036;-78
2023/03/15 12:17:33;;;;;;;2.33;1.45;;;;;;;;;;5084126;28;20541;-80
2023/03/15 12:20:20;;;;;;;2.83;1.50;;;;;;;;;;5090167;28;20027;-79
2023/03/15 12:22:50;;;;;;;4.07;1.77;;;;;;;;;;5091781;28;20028;-79
2023/03/15 12:25:39;;;;;;;3.95;1.67;;;;;;;;;;5087036;28;20029;-82
2023/03/15 12:28:08;;;;;;;8.00;1.83;;;;;;;;;;5086915;28;20041;-81
2023/03/15 12:30:43;;;;;;;3.78;2.30;;;;;;;;;;5109584;28;20470;-86
2023/03/15 12:33:19;;;;;;;3.20;1.80;;;;;;;;;;5086192;28;20183;-83
2023/03/15 12:35:46;;;;;;;3.17;2.03;;;;;;;;;;5085159;28;20498;-83
2023/03/15 12:38:22;;;;;;;2.13;1.58;;;;;;;;;;5088765;28;20513;-85
2023/03/15 12:40:57;;;;;;;3.72;2.50;;;;;;;;;;5084986;28;20089;-85
2023/03/15 12:43:42;;;;;;;6.75;2.58;;;;;;;;;;5088408;28;20360;-84
2023/03/15 12:46:39;;;;;;;3.60;2.45;;;;;;;;;;5090248;28;20432;-84
2023/03/15 12:49:24;;;;;;;2.95;2.30;;;;;;;;;;5087989;28;20024;-83
2023/03/15 12:51:56;;;;;;;6.25;2.60;;;;;;;;;;5074407;28;20028;-81
2023/03/15 12:54:25;;;;;;;2.10;1.42;;;;;;;;;;5089690;28;20618;-80
2023/03/15 12:56:57;;;;;;;5.90;1.77;;;;;;;;;;5085417;28;20024;-80
2023/03/15 12:59:49;;;;;;;4.28;1.95;;;;;;;;;;5083989;28;20059;-81
2023/03/15 13:02:35;;;;;;;1.55;1.23;;;;;;;;;;5086273;28;20029;-80
2023/03/15 13:05:15;;;;;;;3.60;1.50;;;;;;;;;;5087031;28;20506;-80
2023/03/15 13:07:47;;;;;;;3.25;2.05;;;;;;;;;;5081803;28;20443;-80
2023/03/15 13:10:37;;;;;;;2.10;1.65;;;;;;;;;;5080813;28;20028;-80
2023/03/15 13:13:17;;;;;;;8.25;1.85;;;;;;;;;;5088734;28;20085;-79
2023/03/15 13:16:16;;;;;;;5.88;1.95;;;;;;;;;;5106263;28;20041;-80
2023/03/15 13:19:16;;;;;;;5.45;2.13;;;;;;;;;;5086720;28;20158;-79
2023/03/15 13:21:57;;;;;;;4.43;1.83;;;;;;;;;;5086435;28;20020;-78
2023/03/15 13:24:51;;;;;;;3.65;2.90;;;;;;;;;;5092537;28;20384;-79
2023/03/15 13:27:48;;;;;;;4.75;1.83;;;;;;;;;;5086992;28;20633;-79
2023/03/15 13:30:37;;;;;;;2.35;1.52;;;;;;;;;;5056168;28;20040;-80
2023/03/15 13:33:18;;;;;;;2.83;2.07;;;;;;;;;;5079059;28;20082;-79
2023/03/15 13:35:57;;;;;;;3.05;1.50;;;;;;;;;;5083070;28;20361;-79
2023/03/15 13:38:29;;;;;;;6.05;1.73;;;;;;;;;;5086246;28;20102;-79
2023/03/15 13:40:57;;;;;;;5.72;1.70;;;;;;;;;;5084871;28;20032;-79
2023/03/15 13:43:32;;;;;;;5.75;2.10;;;;;;;;;;5088389;28;20035;-80
2023/03/15 13:45:59;;;;;;;2.95;1.23;;;;;;;;;;5089183;28;20027;-79
2023/03/15 13:48:44;;;;;;;2.72;1.70;;;;;;;;;;5085048;28;20090;-78
2023/03/15 13:51:24;;;;;;;1.50;1.40;;;;;;;;;;5086988;28;20115;-78
2023/03/15 13:53:59;;;;;;;2.60;1.65;;;;;;;;;;5086195;28;20036;-79
2023/03/15 13:57:02;;;;;;;2.75;1.75;;;;;;;;;;5101522;28;20055;-79
2023/03/15 13:59:41;;;;;;;3.03;1.73;;;;;;;;;;5084838;28;20372;-79
2023/03/15 14:02:16;;;;;;;6.43;2.33;;;;;;;;;;5080959;28;20422;-80
2023/03/15 14:04:47;;;;;;;3.10;1.52;;;;;;;;;;5078539;28;20504;-79
2023/03/15 14:07:12;;;;;;;1.55;0.88;;;;;;;;;;5100449;28;20039;-79
2023/03/15 14:09:38;;;;;;;1.65;1.30;;;;;;;;;;5082342;28;20416;-79
2023/03/15 14:12:06;;;;;;;2.15;1.48;;;;;;;;;;5081758;28;20036;-79
2023/03/15 14:14:48;;;;;;;2.08;1.50;;;;;;;;;;5085465;28;20016;-80
2023/03/15 14:17:49;;;;;;;1.77;1.20;;;;;;;;;;5081418;28;20479;-80
2023/03/15 14:20:18;;;;;;;3.15;1.85;;;;;;;;;;5088743;28;20080;-80
2023/03/15 14:22:43;;;;;;;2.72;1.35;;;;;;;;;;5082849;28;20117;-78
2023/03/15 14:25:21;;;;;;;2.67;1.15;;;;;;;;;;5082979;28;20426;-79
2023/03/15 14:27:46;;;;;;;1.42;1.30;;;;;;;;;;5082570;28;20082;-78
2023/03/15 14:30:23;;;;;;;3.72;1.50;;;;;;;;;;5087828;28;20035;-79
2023/03/15 14:32:58;;;;;;;1.67;1.15;;;;;;;;;;5087636;28;20051;-79
2023/03/15 14:35:24;;;;;;;1.88;1.23;;;;;;;;;;5086357;28;20020;-80
2023/03/15 14:38:20;;;;;;;8.80;1.55;;;;;;;;;;5082982;28;20020;-80
2023/03/15 14:40:47;;;;;;;1.60;1.27;;;;;;;;;;5078230;28;20107;-79
2023/03/15 14:43:12;;;;;;;2.15;1.50;;;;;;;;;;5086076;28;20466;-79
2023/03/15 14:45:41;;;;;;;2.38;1.23;;;;;;;;;;5084780;28;20028;-80
2023/03/15 14:48:10;;;;;;;1.42;1.17;;;;;;;;;;5087621;28;20030;-79
2023/03/15 14:50:38;;;;;;;1.58;1.23;;;;;;;;;;5081377;28;20039;-79
2023/03/15 14:53:06;;;;;;;2.80;1.45;;;;;;;;;;5081815;28;20032;-80
2023/03/15 14:55:33;;;;;;;1.38;1.27;;;;;;;;;;5080947;28;20028;-80
2023/03/15 14:58:17;;;;;;;2.97;1.25;;;;;;;;;;5082573;28;20024;-79